^^
Datos históricos de la estación: Murcia-Puente Tocinos
Diario Informe para Enero 29, 2019 Unidades:  Métrico    Ingés   Ambas
Diario Semanal Mensual Anual
  Máxima: Mínima: Promedio:
Temperatura: 35.7 °C 23.4 °C 29.1 °C
Punto de rocio: 16.6 °C 10.1 °C 13.9 °C
Humedad: 58% 21.8% 42%
Velocidad viento: 18km/h 0km/h 8.4km/h
Racha viento: 30.6km/h - -
Viento- - ESE
Presión: 1014.5 hPa 1011.3 hPa -
Precipitación: 0.0 mm    
 
 
Tabla de datos para Enero 29, 2019
Hora Temperatura Punto de rocio Presión Viento Velocidad viento Racha viento Humedad Intensidad lluvia(por hora) Nubes
00:04 26.6 °C 16.2 °C 1014.5 hPa NE 2.9 km/h 5.8 km/h 53% 0.0 mm
00:09 26.5 °C 16.2 °C 1014.5 hPa NNE 2.8 km/h 6.4 km/h 53% 0.0 mm
00:14 26.4 °C 16.3 °C 1014.5 hPa NNE 2.2 km/h 5.8 km/h 53.6% 0.0 mm
00:19 26.4 °C 16.3 °C 1014.5 hPa North 2.4 km/h 6.4 km/h 54% 0.0 mm
00:24 26.3 °C 16.3 °C 1014.4 hPa North 2.9 km/h 4.8 km/h 54% 0.0 mm
00:29 26.3 °C 16.2 °C 1014.4 hPa North 2.9 km/h   54% 0.0 mm
00:34 26.3 °C 16.2 °C 1014.4 hPa North 0.2 km/h   54% 0.0 mm
00:39 26.3 °C 16.2 °C 1014.4 hPa Calm   5.6 km/h 54% 0.0 mm
00:44 26.3 °C 16.4 °C 1014.4 hPa Calm   4.8 km/h 54.7% 0.0 mm
00:49 26.2 °C 16.5 °C 1014.4 hPa Calm     55% 0.0 mm
00:54 26.2 °C 16.4 °C 1014.4 hPa Calm     55% 0.0 mm
00:59 26.1 °C 16.3 °C 1014.4 hPa Calm     55% 0.0 mm
01:04 26.1 °C 16.3 °C 1014.4 hPa Calm     55% 0.0 mm
01:09 26 °C 16.4 °C 1014.4 hPa Calm     55.3% 0.0 mm
01:14 26 °C 16.5 °C 1014.4 hPa Calm     55.7% 0.0 mm
01:19 26 °C 16.6 °C 1014.4 hPa Calm     56% 0.0 mm
01:24 25.9 °C 16.5 °C 1014.3 hPa Calm   4.7 km/h 56% 0.0 mm
01:29 25.8 °C 16.1 °C 1014.3 hPa ESE 0.5 km/h 7.6 km/h 55.1% 0.0 mm
01:34 25.7 °C 15.7 °C 1014.3 hPa ESE 2.2 km/h 8 km/h 54.2% 0.0 mm
01:39 25.6 °C 15.6 °C 1014.1 hPa ESE 2.4 km/h 6.4 km/h 54.1% 0.0 mm
01:44 25.5 °C 15.5 °C 1014.1 hPa ESE 3.2 km/h 4.8 km/h 54% 0.0 mm
01:49 25.4 °C 15.4 °C 1014.1 hPa ESE 2.6 km/h 4.8 km/h 54% 0.0 mm
01:54 25.4 °C 15.4 °C 1014.1 hPa Calm     54% 0.0 mm
01:59 25.4 °C 15.6 °C 1014.1 hPa Calm   6.9 km/h 54.8% 0.0 mm
02:04 25.4 °C 15.7 °C 1014.1 hPa Calm   8 km/h 55% 0.0 mm
02:09 25.3 °C 15.7 °C 1014.1 hPa SSO 0.9 km/h 8 km/h 55.3% 0.0 mm
02:14 25.3 °C 15.9 °C 1014.1 hPa SSO 3.9 km/h 5.6 km/h 56% 0.0 mm
02:19 25.3 °C 16 °C 1014.1 hPa SSO 3.5 km/h 4.8 km/h 56.4% 0.0 mm
02:24 25.4 °C 16.2 °C 1014.1 hPa SSO 2.2 km/h 4.8 km/h 57% 0.0 mm
02:29 25.4 °C 16.3 °C 1014.1 hPa SSO 1.8 km/h   57% 0.0 mm
02:34 25.4 °C 16.3 °C 1014.1 hPa Calm   5 km/h 57% 0.0 mm
02:39 25.4 °C 16.3 °C 1014.0 hPa SSO 0.5 km/h 5.6 km/h 57% 0.0 mm
02:44 25.4 °C 16.3 °C 1014.0 hPa SSO 2.2 km/h 4.8 km/h 57% 0.0 mm
02:49 25.4 °C 16.2 °C 1014.0 hPa SSO 1.7 km/h 3.2 km/h 56.8% 0.0 mm
02:54 25.4 °C 16 °C 1013.9 hPa Calm   8.4 km/h 55.9% 0.0 mm
02:59 25.4 °C 15.7 °C 1013.9 hPa SSE 1.1 km/h 9.5 km/h 55% 0.0 mm
03:04 25.3 °C 15.7 °C 1013.9 hPa Sur 4.6 km/h 9.7 km/h 55% 0.0 mm
03:09 25.3 °C 15.6 °C 1013.9 hPa Sur 4.7 km/h 8 km/h 55% 0.0 mm
03:14 25.2 °C 15.5 °C 1013.9 hPa SSO 5 km/h 8.4 km/h 55% 0.0 mm
03:19 25.2 °C 15.7 °C 1013.9 hPa SSO 5.2 km/h 9.3 km/h 55.7% 0.0 mm
03:24 25.2 °C 15.7 °C 1013.7 hPa SSO 5.8 km/h 9.7 km/h 56% 0.0 mm
03:29 25.1 °C 15.7 °C 1013.7 hPa Sur 5.5 km/h 9.7 km/h 56% 0.0 mm
03:34 25.1 °C 15.7 °C 1013.7 hPa SSO 4.7 km/h 8 km/h 56% 0.0 mm
03:39 25.1 °C 15.8 °C 1013.6 hPa OSO 4.3 km/h 8 km/h 56.2% 0.0 mm
03:44 25.1 °C 15.7 °C 1013.6 hPa SSO 2.9 km/h 8 km/h 56% 0.0 mm
03:49 25.1 °C 15.7 °C 1013.6 hPa SO 3.1 km/h 8 km/h 56% 0.0 mm
03:54 25.1 °C 15.9 °C 1013.5 hPa SSO 3.9 km/h 8 km/h 56.7% 0.0 mm
03:59 25 °C 15.6 °C 1013.5 hPa Sur 3.6 km/h 7.4 km/h 56% 0.0 mm
04:04 24.9 °C 15.5 °C 1013.5 hPa SSO 2.9 km/h 8 km/h 56% 0.0 mm
04:09 24.9 °C 15.5 °C 1013.4 hPa SSO 3.3 km/h 9.5 km/h 56% 0.0 mm
04:14 24.8 °C 15.5 °C 1013.4 hPa SO 4.7 km/h 10 km/h 56% 0.0 mm
04:19 24.8 °C 15.4 °C 1013.4 hPa SO 4.9 km/h 9.7 km/h 56% 0.0 mm
04:24 24.8 °C 15.3 °C 1013.4 hPa OSO 5.8 km/h 11.1 km/h 55.4% 0.0 mm
04:29 24.7 °C 15 °C 1013.4 hPa SO 5.9 km/h 11.3 km/h 55% 0.0 mm
04:34 24.6 °C 15.1 °C 1013.4 hPa SO 6.5 km/h 11.3 km/h 55.5% 0.0 mm
04:39 24.6 °C 15 °C 1013.3 hPa SO 6.5 km/h 13 km/h 55.2% 0.0 mm
04:44 24.6 °C 14.8 °C 1013.3 hPa SO 6.5 km/h 12.9 km/h 54.5% 0.0 mm
04:49 24.6 °C 14.7 °C 1013.3 hPa SSO 6.3 km/h 9.7 km/h 54% 0.0 mm
04:54 24.6 °C 14.7 °C 1013.3 hPa SSO 5.8 km/h 9.7 km/h 54% 0.0 mm
04:59 24.6 °C 14.7 °C 1013.3 hPa SSO 5.8 km/h 10 km/h 54.2% 0.0 mm
05:04 24.6 °C 15 °C 1013.3 hPa SSE 5.8 km/h 9.7 km/h 55.1% 0.0 mm
05:09 24.4 °C 15 °C 1013.2 hPa Sur 5.6 km/h 10 km/h 55.6% 0.0 mm
05:14 24.2 °C 14.9 °C 1013.2 hPa Sur 5 km/h 11.1 km/h 55.8% 0.0 mm
05:19 24.1 °C 14.8 °C 1013.2 hPa Sur 5.4 km/h 11.3 km/h 56% 0.0 mm
05:24 23.9 °C 14.6 °C 1013.1 hPa Sur 6.9 km/h 11.3 km/h 56% 0.0 mm
05:29 23.9 °C 14.7 °C 1013.1 hPa SSE 6.9 km/h 11.3 km/h 56.3% 0.0 mm
05:34 23.8 °C 14.8 °C 1013.1 hPa Sur 6.9 km/h 10.3 km/h 57% 0.0 mm
05:39 23.7 °C 14.7 °C 1013.1 hPa SSE 7.1 km/h 11.9 km/h 57.1% 0.0 mm
05:44 23.5 °C 14.8 °C 1013.1 hPa Sur 7.6 km/h 11.3 km/h 58% 0.0 mm
05:49 23.4 °C 14.7 °C 1013.1 hPa Sur 7.4 km/h 11.3 km/h 58% 0.0 mm
05:54 23.4 °C 14.7 °C 1013.0 hPa SSO 6.9 km/h 11.9 km/h 58% 0.0 mm
05:59 23.4 °C 14.7 °C 1013.0 hPa SSO 7.1 km/h 13 km/h 57.9% 0.0 mm
06:04 23.5 °C 14.5 °C 1013.0 hPa SSO 7.6 km/h 14.8 km/h 57% 0.0 mm
06:09 23.6 °C 14.6 °C 1013.0 hPa SSO 7.6 km/h 14.5 km/h 57% 0.0 mm
06:14 23.7 °C 14.6 °C 1013.0 hPa SSO 7.6 km/h 13 km/h 56.9% 0.0 mm
06:19 23.7 °C 14.5 °C 1013.0 hPa SSO 8 km/h 13.7 km/h 56.7% 0.0 mm
06:24 23.6 °C 14.6 °C 1013.0 hPa SSO 9.5 km/h 14.5 km/h 57% 0.0 mm
06:29 23.6 °C 14.5 °C 1013.0 hPa SSO 9.5 km/h 14.5 km/h 57% 0.0 mm
06:34 23.5 °C 14.5 °C 1013.0 hPa SSO 9.5 km/h 14.5 km/h 57% 0.0 mm
06:39 23.6 °C 14.6 °C 1012.9 hPa SO 9.3 km/h 15.6 km/h 57% 0.0 mm
06:44 23.6 °C 14.6 °C 1012.9 hPa SO 8.7 km/h 16.1 km/h 57% 0.0 mm
06:49 23.6 °C 14.4 °C 1013.0 hPa SO 8.5 km/h 12.9 km/h 56.4% 0.0 mm
06:54 23.7 °C 14.4 °C 1013.0 hPa SO 7.6 km/h 13 km/h 56% 0.0 mm
06:59 23.7 °C 14.4 °C 1013.0 hPa SO 7.9 km/h 14.8 km/h 56% 0.0 mm
07:04 23.7 °C 14.4 °C 1013.1 hPa SO 8.7 km/h 14.8 km/h 56% 0.0 mm
07:09 23.7 °C 14.4 °C 1013.1 hPa SO 8.9 km/h 14.8 km/h 56% 0.0 mm
07:14 23.6 °C 14.3 °C 1013.1 hPa SO 9.5 km/h 14.5 km/h 56% 0.0 mm
07:19 23.6 °C 14.3 °C 1013.1 hPa SO 9.2 km/h 14.8 km/h 56% 0.0 mm
07:24 23.6 °C 14.3 °C 1013.1 hPa SO 8.4 km/h 16.7 km/h 56% 0.0 mm
07:29 23.5 °C 14.3 °C 1013.1 hPa OSO 8.8 km/h 16.1 km/h 56% 0.0 mm
07:34 23.5 °C 14.2 °C 1013.2 hPa OSO 10.3 km/h 16.1 km/h 56% 0.0 mm
07:39 23.4 °C 14.1 °C 1013.2 hPa OSO 10.1 km/h 14.8 km/h 56% 0.0 mm
07:44 23.5 °C 14.2 °C 1013.2 hPa OSO 9.5 km/h 14.5 km/h 56% 0.0 mm
07:49 23.5 °C 14.2 °C 1013.4 hPa OSO 9.1 km/h 12.9 km/h 56% 0.0 mm
07:54 23.5 °C 14.2 °C 1013.4 hPa OSO 7.6 km/h 11.3 km/h 56% 0.0 mm
07:59 23.5 °C 14.3 °C 1013.4 hPa OSO 7.4 km/h 11.3 km/h 56% 0.0 mm
08:04 23.6 °C 14.3 °C 1013.5 hPa OSO 6.9 km/h 13 km/h 55.8% 0.0 mm
08:09 23.6 °C 14.1 °C 1013.5 hPa OSO 6.9 km/h 12.9 km/h 55.2% 0.0 mm
08:14 23.7 °C 14.4 °C 1013.5 hPa Oeste 6.9 km/h 11.3 km/h 55.9% 0.0 mm
08:19 23.8 °C 14.2 °C 1013.6 hPa Oeste 6.4 km/h 8.4 km/h 55% 0.0 mm
08:24 23.8 °C 14.3 °C 1013.6 hPa Oeste 4.7 km/h 8 km/h 55% 0.0 mm
08:29 24 °C 14.1 °C 1013.6 hPa OSO 4.9 km/h 11.9 km/h 54.1% 0.0 mm
08:34 24.1 °C 14.2 °C 1013.7 hPa SO 5.8 km/h 11.3 km/h 54% 0.0 mm
08:39 24.2 °C 14.3 °C 1013.7 hPa OSO 5.8 km/h 10.3 km/h 54% 0.0 mm
08:44 24.3 °C 14.3 °C 1013.7 hPa OSO 5.8 km/h 11.3 km/h 53.9% 0.0 mm
08:49 24.5 °C 14.4 °C 1013.7 hPa SO 5.5 km/h 9.7 km/h 53.5% 0.0 mm
08:54 24.7 °C 14.3 °C 1013.6 hPa SO 4.7 km/h 9.5 km/h 52.2% 0.0 mm
08:59 24.9 °C 14.1 °C 1013.6 hPa OSO 4.9 km/h 10.3 km/h 51% 0.0 mm
09:04 25.1 °C 14.2 °C 1013.7 hPa OSO 5.8 km/h 11.9 km/h 51% 0.0 mm
09:09 25.2 °C 14.1 °C 1013.7 hPa OSO 6 km/h 11.3 km/h 50.3% 0.0 mm
09:14 25.3 °C 14.1 °C 1013.7 hPa SO 6.9 km/h 11.3 km/h 50% 0.0 mm
09:19 25.5 °C 14.2 °C 1013.7 hPa SO 6.8 km/h 11.9 km/h 49.6% 0.0 mm
09:24 25.7 °C 14.3 °C 1013.6 hPa SO 6.5 km/h 13 km/h 49.3% 0.0 mm
09:29 25.8 °C 14.2 °C 1013.6 hPa SO 6.5 km/h 13 km/h 48.7% 0.0 mm
09:34 25.9 °C 13.9 °C 1013.8 hPa SO 6.5 km/h 13 km/h 47.3% 0.0 mm
09:39 26.1 °C 13.8 °C 1013.8 hPa SO 7.1 km/h 13 km/h 46.7% 0.0 mm
09:44 26.2 °C 13.7 °C 1013.8 hPa SO 9.5 km/h 13 km/h 46% 0.0 mm
09:49 26.4 °C 13.8 °C 1013.8 hPa SO 8.9 km/h 13 km/h 45.9% 0.0 mm
09:54 26.7 °C 13.8 °C 1013.8 hPa SO 6.9 km/h 11.3 km/h 45.2% 0.0 mm
09:59 26.8 °C 13.9 °C 1013.8 hPa Oeste 6.8 km/h 11.3 km/h 45% 0.0 mm
10:04 26.9 °C 13.7 °C 1013.9 hPa OSO 6.5 km/h 10 km/h 44.3% 0.0 mm
10:09 27 °C 13.7 °C 1013.9 hPa Oeste 6.3 km/h 9.7 km/h 44% 0.0 mm
10:14 27.2 °C 14 °C 1013.9 hPa OSO 5.8 km/h 9.3 km/h 44.1% 0.0 mm
10:19 27.6 °C 13.9 °C 1013.9 hPa SO 5.5 km/h 9.7 km/h 43% 0.0 mm
10:24 27.8 °C 13.9 °C 1013.9 hPa OSO 4.7 km/h 11.1 km/h 42.5% 0.0 mm
10:29 27.9 °C 13.8 °C 1013.9 hPa OSO 4.9 km/h 11.3 km/h 42.1% 0.0 mm
10:34 28 °C 13.9 °C 1013.9 hPa Oeste 5.8 km/h 11.1 km/h 42% 0.0 mm
10:39 28.2 °C 14 °C 1013.8 hPa ONO 5.9 km/h 11.3 km/h 42% 0.0 mm
10:44 28.3 °C 14.1 °C 1013.8 hPa ONO 6.5 km/h 11.3 km/h 41.9% 0.0 mm
10:49 28.5 °C 14.2 °C 1013.8 hPa ONO 6 km/h 9.7 km/h 41.5% 0.0 mm
10:54 28.8 °C 14.3 °C 1013.8 hPa NO 4.7 km/h 8.4 km/h 41.2% 0.0 mm
10:59 29.1 °C 14.5 °C 1013.8 hPa Oeste 4.4 km/h 8 km/h 41% 0.0 mm
11:04 29.4 °C 14.5 °C 1013.8 hPa Oeste 3.9 km/h 8.4 km/h 40.2% 0.0 mm
11:09 29.6 °C 14.6 °C 1013.8 hPa ONO 3.9 km/h 8.4 km/h 40% 0.0 mm
11:14 29.8 °C 14.6 °C 1013.8 hPa SSO 3.9 km/h 9.5 km/h 39.7% 0.0 mm
11:19 29.8 °C 14.6 °C 1013.8 hPa SO 3.9 km/h 9.7 km/h 39.5% 0.0 mm
11:24 30.3 °C 14.8 °C 1013.8 hPa NO 3.9 km/h 4.8 km/h 39.1% 0.0 mm
11:29 30.9 °C 15 °C 1013.8 hPa NO 3 km/h 6.9 km/h 38.3% 0.0 mm
11:34 31.2 °C 14.8 °C 1013.8 hPa Calm   8 km/h 37% 0.0 mm
11:39 31.4 °C 14.8 °C 1013.8 hPa NE 0.7 km/h 11.1 km/h 36.6% 0.0 mm
11:44 31.5 °C 14.6 °C 1013.8 hPa NNE 3.2 km/h 11.3 km/h 36% 0.0 mm
11:49 31.7 °C 14.8 °C 1013.8 hPa ENE 3.4 km/h 9.7 km/h 36% 0.0 mm
11:54 32 °C 14.8 °C 1013.6 hPa NE 3.9 km/h 10 km/h 35.3% 0.0 mm
11:59 32.2 °C 14.7 °C 1013.6 hPa NNE 4.2 km/h 14.8 km/h 34.9% 0.0 mm
12:04 32.1 °C 14.8 °C 1013.6 hPa NNE 5 km/h 14.8 km/h 35.2% 0.0 mm
12:09 32.2 °C 14.4 °C 1013.6 hPa ENE 5.8 km/h 15.6 km/h 34.2% 0.0 mm
12:14 32.2 °C 14.4 °C 1013.6 hPa North 8.4 km/h 16.1 km/h 34.2% 0.0 mm
12:19 32.2 °C 14.7 °C 1013.6 hPa North 8.2 km/h 14.5 km/h 34.8% 0.0 mm
12:24 32.3 °C 14.3 °C 1013.5 hPa NE 7.6 km/h 18.5 km/h 33.7% 0.0 mm
12:29 32.3 °C 14 °C 1013.5 hPa NNE 8 km/h 19.3 km/h 33% 0.0 mm
12:34 32.5 °C 14.1 °C 1013.5 hPa NE 9.5 km/h 19.3 km/h 33% 0.0 mm
12:39 32.7 °C 14.2 °C 1013.4 hPa North 9.5 km/h 20.9 km/h 32.8% 0.0 mm
12:44 32.7 °C 14.1 °C 1013.4 hPa NNE 9.5 km/h 20.9 km/h 32.5% 0.0 mm
12:49 32.8 °C 14.1 °C 1013.4 hPa NE 10 km/h 24.1 km/h 32.4% 0.0 mm
12:54 32.8 °C 13.9 °C 1013.4 hPa NE 11.9 km/h 24.1 km/h 32% 0.0 mm
12:59 32.8 °C 14.1 °C 1013.4 hPa ENE 11.3 km/h 20.1 km/h 32.3% 0.0 mm
13:04 33 °C 14.1 °C 1013.4 hPa NNE 9.5 km/h 20.9 km/h 32% 0.0 mm
13:09 33.2 °C 14.3 °C 1013.2 hPa NE 9.6 km/h 20.9 km/h 32% 0.0 mm
13:14 33.3 °C 14.3 °C 1013.2 hPa NNE 10.3 km/h 19.3 km/h 31.9% 0.0 mm
13:19 33.4 °C 14.2 °C 1013.2 hPa NE 9.5 km/h 14.5 km/h 31.4% 0.0 mm
13:24 33.7 °C 14 °C 1013.1 hPa NNO 6.9 km/h 18 km/h 30.8% 0.0 mm
13:29 34 °C 13.9 °C 1013.1 hPa NNE 7.3 km/h 20.9 km/h 30% 0.0 mm
13:34 34.3 °C 13.5 °C 1013.1 hPa Este 8.7 km/h 20.9 km/h 28.6% 0.0 mm
13:39 34.5 °C 13.3 °C 1013.0 hPa Este 9 km/h 20.9 km/h 28% 0.0 mm
13:44 34.7 °C 13.2 °C 1013.0 hPa ENE 10 km/h 20.4 km/h 27.5% 0.0 mm
13:49 34.6 °C 12.9 °C 1013.0 hPa NE 10.5 km/h 22.5 km/h 26.9% 0.0 mm
13:54 34.4 °C 12.8 °C 1012.9 hPa Este 12.2 km/h 22.5 km/h 27% 0.0 mm
13:59 34.7 °C 12.7 °C 1012.9 hPa NE 12.2 km/h 25.9 km/h 26.6% 0.0 mm
14:04 34.8 °C 12.5 °C 1012.9 hPa NE 11.9 km/h 25.7 km/h 26.1% 0.0 mm
14:09 35 °C 13 °C 1012.7 hPa ENE 11.5 km/h 22.5 km/h 26.6% 0.0 mm
14:14 35.2 °C 12.8 °C 1012.7 hPa ENE 10.3 km/h 25.1 km/h 26.1% 0.0 mm
14:19 35.2 °C 12.3 °C 1012.7 hPa NE 11 km/h 25.9 km/h 25.1% 0.0 mm
14:24 35.2 °C 12 °C 1012.6 hPa NE 13 km/h 25.7 km/h 24.6% 0.0 mm
14:29 35.1 °C 11.7 °C 1012.6 hPa NE 13 km/h 25.9 km/h 24.3% 0.0 mm
14:34 35.1 °C 11.5 °C 1012.6 hPa NE 13 km/h 25.7 km/h 24% 0.0 mm
14:39 35.2 °C 10.9 °C 1012.4 hPa NE 13.5 km/h 24.5 km/h 22.9% 0.0 mm
14:44 35.2 °C 10.5 °C 1012.4 hPa NE 14.8 km/h 24.1 km/h 22.4% 0.0 mm
14:49 35.3 °C 10.2 °C 1012.4 hPa NE 13.8 km/h 19.3 km/h 21.8% 0.0 mm
14:54 35.5 °C 10.8 °C 1012.3 hPa NE 11.1 km/h 21.7 km/h 22.4% 0.0 mm
14:59 35.7 °C 12.3 °C 1012.3 hPa NE 11.1 km/h 25.1 km/h 24.5% 0.0 mm
15:04 35.6 °C 12.3 °C 1012.3 hPa NE 11.1 km/h 25.9 km/h 24.6% 0.0 mm
15:09 35.4 °C 12.1 °C 1012.3 hPa ENE 11.7 km/h 24.1 km/h 24.6% 0.0 mm
15:14 35.6 °C 12.1 °C 1012.3 hPa NE 13.7 km/h 27.8 km/h 24.4% 0.0 mm
15:19 35.4 °C 11.9 °C 1012.3 hPa NE 13.7 km/h 29.6 km/h 24.1% 0.0 mm
15:24 35.3 °C 11.4 °C 1012.1 hPa NE 14 km/h 29.6 km/h 23.6% 0.0 mm
15:29 35.3 °C 11.2 °C 1012.1 hPa NE 14.5 km/h 29 km/h 23.3% 0.0 mm
15:34 35.4 °C 11.1 °C 1012.1 hPa NE 16.1 km/h 25.9 km/h 23.1% 0.0 mm
15:39 35.3 °C 12 °C 1012.0 hPa NE 15.8 km/h 28.2 km/h 24.4% 0.0 mm
15:44 35.4 °C 12.2 °C 1012.0 hPa ENE 14.8 km/h 27.4 km/h 24.6% 0.0 mm
15:49 35.4 °C 12.3 °C 1012.0 hPa NE 14.4 km/h 28.6 km/h 24.9% 0.0 mm
15:54 35.4 °C 11.7 °C 1011.9 hPa NE 13 km/h 29.6 km/h 24% 0.0 mm
15:59 35.2 °C 11.6 °C 1011.9 hPa NE 14.3 km/h 29 km/h 24% 0.0 mm
16:04 35.2 °C 11.6 °C 1011.9 hPa NE 18 km/h 29 km/h 24% 0.0 mm
16:09 35.3 °C 11.7 °C 1011.9 hPa NE 17.6 km/h 27.8 km/h 24% 0.0 mm
16:14 35.3 °C 11.8 °C 1011.9 hPa NE 16.1 km/h 27.8 km/h 24.2% 0.0 mm
16:19 35.2 °C 11.5 °C 1011.9 hPa NE 16.2 km/h 27.8 km/h 23.8% 0.0 mm
16:24 35.3 °C 11.7 °C 1011.8 hPa NE 16.4 km/h 30.6 km/h 24% 0.0 mm
16:29 35.4 °C 11.7 °C 1011.8 hPa ENE 16.3 km/h 30.6 km/h 23.9% 0.0 mm
16:34 35.1 °C 12 °C 1011.8 hPa NE 16.1 km/h 29.8 km/h 24.7% 0.0 mm
16:39 35 °C 11.4 °C 1011.8 hPa NE 16.4 km/h 30.6 km/h 24% 0.0 mm
16:44 35.1 °C 11.6 °C 1011.8 hPa ENE 17.2 km/h 29 km/h 24.2% 0.0 mm
16:49 35.2 °C 11 °C 1011.8 hPa NE 16.8 km/h 29.6 km/h 23.2% 0.0 mm
16:54 35.2 °C 11.4 °C 1011.7 hPa NE 15.6 km/h 29 km/h 23.8% 0.0 mm
16:59 35.2 °C 11.4 °C 1011.7 hPa NE 15.4 km/h 27.8 km/h 23.8% 0.0 mm
17:04 35.2 °C 11 °C 1011.7 hPa NE 14.8 km/h 27.4 km/h 23.2% 0.0 mm
17:09 35.1 °C 11.2 °C 1011.7 hPa NE 15.1 km/h 27.8 km/h 23.4% 0.0 mm
17:14 35 °C 10.6 °C 1011.7 hPa NE 16.1 km/h 27.4 km/h 22.9% 0.0 mm
17:19 35.1 °C 10.4 °C 1011.7 hPa NE 15.6 km/h 27.8 km/h 22.3% 0.0 mm
17:24 35 °C 10.3 °C 1011.7 hPa ENE 14 km/h 27.4 km/h 22.2% 0.0 mm
17:29 35.2 °C 10.6 °C 1011.7 hPa ENE 13.6 km/h 24.1 km/h 22.5% 0.0 mm
17:34 35.1 °C 10.5 °C 1011.7 hPa ENE 12.2 km/h 24.5 km/h 22.6% 0.0 mm
17:39 35 °C 10.9 °C 1011.6 hPa NE 12.8 km/h 26.2 km/h 23.1% 0.0 mm
17:44 35 °C 11.1 °C 1011.6 hPa Este 14.8 km/h 30.6 km/h 23.5% 0.0 mm
17:49 34.9 °C 10.4 °C 1011.6 hPa ENE 14.8 km/h 30.6 km/h 22.5% 0.0 mm
17:54 34.9 °C 10.3 °C 1011.5 hPa NE 14.8 km/h 27.8 km/h 22.5% 0.0 mm
17:59 34.9 °C 10.1 °C 1011.5 hPa ENE 14.6 km/h 27.4 km/h 22.1% 0.0 mm
18:04 34.9 °C 10.1 °C 1011.5 hPa ENE 14 km/h 25.9 km/h 22.2% 0.0 mm
18:09 34.9 °C 10.7 °C 1011.5 hPa NE 13.6 km/h 28.6 km/h 23% 0.0 mm
18:14 34.8 °C 10.8 °C 1011.5 hPa ENE 12.2 km/h 29.6 km/h 23.4% 0.0 mm
18:19 34.7 °C 11.1 °C 1011.5 hPa NE 12.6 km/h 24.1 km/h 24% 0.0 mm
18:24 34.4 °C 11.2 °C 1011.4 hPa NE 13.7 km/h 29.6 km/h 24.4% 0.0 mm
18:29 34.3 °C 11.7 °C 1011.4 hPa NE 14.1 km/h 29 km/h 25.5% 0.0 mm
18:34 34.3 °C 11.8 °C 1011.4 hPa NE 15.6 km/h 25.9 km/h 25.5% 0.0 mm
18:39 34.3 °C 12 °C 1011.4 hPa NE 15.1 km/h 24.5 km/h 25.9% 0.0 mm
18:44 34.2 °C 12 °C 1011.4 hPa NE 13.7 km/h 25.9 km/h 26.1% 0.0 mm
18:49 33.9 °C 12.3 °C 1011.4 hPa NE 14.1 km/h 25.9 km/h 27% 0.0 mm
18:54 33.8 °C 12.3 °C 1011.3 hPa NE 15.6 km/h 25.9 km/h 27.2% 0.0 mm
18:59 33.7 °C 12.2 °C 1011.3 hPa NE 15.6 km/h 25.9 km/h 27.2% 0.0 mm
19:04 33.8 °C 12.2 °C 1011.4 hPa NE 15.6 km/h 25.7 km/h 27.1% 0.0 mm
19:09 33.7 °C 12.6 °C 1011.4 hPa NE 15.6 km/h 27.8 km/h 27.9% 0.0 mm
19:14 33.4 °C 12.5 °C 1011.4 hPa NE 15.6 km/h 27.4 km/h 28.2% 0.0 mm
19:19 33.4 °C 12.8 °C 1011.5 hPa NE 15.2 km/h 25.1 km/h 28.7% 0.0 mm
19:24 33.2 °C 12.7 °C 1011.5 hPa NE 14 km/h 27.8 km/h 29% 0.0 mm
19:29 33.1 °C 12.7 °C 1011.5 hPa NE 14.2 km/h 27.4 km/h 29% 0.0 mm
19:34 33.2 °C 13.1 °C 1011.7 hPa NE 14.8 km/h 20.9 km/h 29.8% 0.0 mm
19:39 33.1 °C 13.1 °C 1011.7 hPa NE 14.6 km/h 28.2 km/h 29.8% 0.0 mm
19:44 32.8 °C 12.8 °C 1011.7 hPa NE 13.7 km/h 29.6 km/h 29.7% 0.0 mm
19:49 32.7 °C 12.3 °C 1011.8 hPa NE 14.2 km/h 29 km/h 29% 0.0 mm
19:54 32.7 °C 12.5 °C 1011.8 hPa NE 16.1 km/h 24.5 km/h 29.4% 0.0 mm
19:59 32.5 °C 12.3 °C 1011.8 hPa NE 16 km/h 24.5 km/h 29.3% 0.0 mm
20:04 32.4 °C 12.3 °C 1011.9 hPa NE 15.6 km/h 26.2 km/h 29.5% 0.0 mm
20:09 32.3 °C 12.5 °C 1011.9 hPa NE 15.3 km/h 25.7 km/h 30% 0.0 mm
20:14 32.3 °C 12.3 °C 1011.9 hPa NE 14 km/h 24.5 km/h 29.6% 0.0 mm
20:19 32.2 °C 12.7 °C 1012.0 hPa NE 14 km/h 24.1 km/h 30.6% 0.0 mm
20:24 32 °C 13 °C 1012.0 hPa NE 14 km/h 22.5 km/h 31.4% 0.0 mm
20:29 31.9 °C 13.3 °C 1012.0 hPa NE 14 km/h 22.5 km/h 32.2% 0.0 mm
20:34 31.8 °C 13.1 °C 1012.0 hPa NE 14 km/h 22.5 km/h 32.1% 0.0 mm
20:39 31.7 °C 13.4 °C 1012.0 hPa NE 14 km/h 22.5 km/h 33% 0.0 mm
20:44 31.5 °C 13.7 °C 1012.0 hPa NE 14 km/h 22.5 km/h 33.8% 0.0 mm
20:49 31.3 °C 13.6 °C 1012.2 hPa NE 13.8 km/h 20.9 km/h 34% 0.0 mm
20:54 31.2 °C 13.8 °C 1012.2 hPa NE 13 km/h 20.9 km/h 34.9% 0.0 mm
20:59 31 °C 13.7 °C 1012.2 hPa NE 12.7 km/h 19.3 km/h 35% 0.0 mm
21:04 30.8 °C 13.6 °C 1012.3 hPa NE 11.9 km/h 18 km/h 35% 0.0 mm
21:09 30.8 °C 13.5 °C 1012.3 hPa NE 11.5 km/h 19.3 km/h 35% 0.0 mm
21:14 30.7 °C 13.4 °C 1012.3 hPa NE 10 km/h 16.7 km/h 35% 0.0 mm
21:19 30.5 °C 13.3 °C 1012.3 hPa NE 10 km/h 18 km/h 35% 0.0 mm
21:24 30.3 °C 13.1 °C 1012.3 hPa NE 10 km/h 19.3 km/h 35% 0.0 mm
21:29 30.2 °C 13.3 °C 1012.3 hPa NE 9.7 km/h 19.3 km/h 35.6% 0.0 mm
21:34 30 °C 13.3 °C 1012.4 hPa NE 8.7 km/h 16.7 km/h 36% 0.0 mm
21:39 29.9 °C 13.5 °C 1012.4 hPa NE 8.6 km/h 16.1 km/h 36.7% 0.0 mm
21:44 29.7 °C 13.7 °C 1012.4 hPa NE 8.4 km/h 13 km/h 37.5% 0.0 mm
21:49 29.5 °C 13.8 °C 1012.5 hPa NE 8.4 km/h 13 km/h 38.3% 0.0 mm
21:54 29.3 °C 13.9 °C 1012.5 hPa NE 8.4 km/h 11.3 km/h 39% 0.0 mm
21:59 29.2 °C 14.1 °C 1012.5 hPa NE 8.2 km/h 11.3 km/h 39.9% 0.0 mm
22:04 29 °C 14.2 °C 1012.7 hPa NE 7.6 km/h 11.3 km/h 40.5% 0.0 mm
22:09 28.8 °C 14.3 °C 1012.7 hPa NE 7.6 km/h 12.2 km/h 41% 0.0 mm
22:14 28.7 °C 14.5 °C 1012.7 hPa NE 7.6 km/h 13 km/h 42% 0.0 mm
22:19 28.5 °C 14.6 °C 1012.9 hPa NE 7.8 km/h 13 km/h 42.8% 0.0 mm
22:24 28.2 °C 14.7 °C 1012.9 hPa NE 8.4 km/h 12.9 km/h 43.8% 0.0 mm
22:29 28.1 °C 14.9 °C 1012.9 hPa NE 8.4 km/h 14.8 km/h 44.4% 0.0 mm
22:34 28 °C 14.9 °C 1013.1 hPa NE 8.4 km/h 14.5 km/h 45% 0.0 mm
22:39 27.8 °C 14.8 °C 1013.1 hPa NE 8.2 km/h 12.2 km/h 45% 0.0 mm
22:44 27.8 °C 14.9 °C 1013.1 hPa NE 7.6 km/h 12.9 km/h 45.4% 0.0 mm
22:49 27.8 °C 15.1 °C 1013.3 hPa NE 7.3 km/h 11.3 km/h 46% 0.0 mm
22:54 27.7 °C 15.1 °C 1013.3 hPa NE 6.5 km/h 11.3 km/h 46% 0.0 mm
22:59 27.6 °C 15 °C 1013.3 hPa NE 6.6 km/h 11.9 km/h 46% 0.0 mm
23:04 27.6 °C 15.1 °C 1013.4 hPa NE 6.9 km/h 11.9 km/h 46.5% 0.0 mm
23:09 27.4 °C 15.1 °C 1013.4 hPa NNE 7.1 km/h 14.5 km/h 47% 0.0 mm
23:14 27.3 °C 15 °C 1013.4 hPa NE 7.6 km/h 14.5 km/h 47.1% 0.0 mm
23:19 27.2 °C 15.2 °C 1013.5 hPa NE 7.6 km/h 11.3 km/h 48% 0.0 mm
23:24 27.1 °C 15.2 °C 1013.5 hPa NE 7.6 km/h 11.3 km/h 48% 0.0 mm
23:29 27 °C 15 °C 1013.5 hPa NE 7.4 km/h 11.3 km/h 48% 0.0 mm
23:34 26.9 °C 14.9 °C 1013.6 hPa NNE 6.9 km/h 9.7 km/h 48% 0.0 mm
23:39 26.9 °C 15 °C 1013.6 hPa NE 6.5 km/h 8 km/h 48.2% 0.0 mm
23:44 26.8 °C 15.1 °C 1013.6 hPa NE 5 km/h 9.3 km/h 48.8% 0.0 mm
23:49 26.8 °C 15.2 °C 1013.8 hPa NNE 5.2 km/h 9.7 km/h 49% 0.0 mm
23:54 26.8 °C 15.1 °C 1013.8 hPa NE 5.8 km/h 9.7 km/h 48.9% 0.0 mm
23:59 26.8 °C 15.2 °C 1013.8 hPa ENE 5.3 km/h 8 km/h 49% 0.0 mm
Murcia-Puente Tocinos, España
Compliments of Weather Underground - 3 mb

La estación de MeteoMurcia.com, publica sus datos en los siguientes proyectos:

Weather Underground PWS IMURCIAP2 Meteoclimatic www.awekas.at

W3Counter
Web Analytics